Time;durP1;ratioP1;P1;durP2;ratioP2;P2;SDS_P1;SDS_P2;PMS_P1;PMS_P2;Temp;Humidity;BMP_temperature;BMP_pressure;BME280_temperature;BME280_humidity;BME280_pressure;Samples;Min_cycle;Max_cycle;Signal;HPM_P1;HPM_P2
2022/10/11 00:00:32;;;;;;;10.40;1.87;;;;;;;8.28;100.00;102050.47;5023954;28;20181;-76
2022/10/11 00:02:59;;;;;;;8.03;1.43;;;;;;;7.68;100.00;101940.72;5017619;28;20707;-76
2022/10/11 00:05:25;;;;;;;10.57;2.17;;;;;;;9.07;100.00;102155.75;5002261;28;20442;-76
2022/10/11 00:07:50;;;;;;;10.97;2.30;;;;;;;7.60;100.00;101968.16;5022897;28;20442;-78
2022/10/11 00:10:16;;;;;;;9.50;2.33;;;;;;;7.58;100.00;101950.59;5009118;28;20354;-77
2022/10/11 00:12:42;;;;;;;9.37;1.97;;;;;;;9.60;100.00;102310.09;5022326;28;20177;-77
2022/10/11 00:15:10;;;;;;;6.93;2.17;;;;;;;6.96;100.00;101851.75;5003425;28;20794;-76
2022/10/11 00:17:35;;;;;;;6.50;1.90;;;;;;;8.33;100.00;102151.56;5025731;28;20583;-76
2022/10/11 00:20:01;;;;;;;6.53;1.70;;;;;;;9.21;100.00;102286.34;5024239;28;20435;-76
2022/10/11 00:22:26;;;;;;;11.03;2.33;;;;;;;8.81;100.00;102218.09;5018226;28;20219;-76
2022/10/11 00:24:52;;;;;;;10.13;2.57;;;;;;;9.53;100.00;102365.28;5021198;28;20176;-76
2022/10/11 00:27:18;;;;;;;8.13;2.00;;;;;;;8.33;100.00;102154.25;5022612;28;20207;-76
2022/10/11 00:29:43;;;;;;;7.00;2.00;;;;;;;9.52;100.00;102339.50;5021340;28;20207;-77
2022/10/11 00:32:09;;;;;;;5.87;1.70;;;;;;;6.93;100.00;101938.22;5002980;28;20471;-76
2022/10/11 00:34:34;;;;;;;7.07;1.47;;;;;;;6.46;100.00;101870.81;5019192;28;20890;-76
2022/10/11 00:37:00;;;;;;;5.40;1.70;;;;;;;9.53;100.00;102378.69;5021986;28;20200;-77
2022/10/11 00:39:25;;;;;;;6.10;1.63;;;;;;;7.62;100.00;102080.19;5022606;28;20189;-76
2022/10/11 00:41:51;;;;;;;6.10;1.60;;;;;;;6.88;100.00;101895.16;5021040;28;20564;-75
2022/10/11 00:44:22;;;;;;;4.30;1.30;;;;;;;7.92;100.00;102095.88;5016083;28;20271;-77
2022/10/11 00:46:59;;;;;;;5.90;1.70;;;;;;;9.66;100.00;102340.78;5021361;28;20196;-77
2022/10/11 00:49:35;;;;;;;9.60;2.20;;;;;;;9.00;100.00;102284.00;5016731;28;20450;-76
2022/10/11 00:52:04;;;;;;;7.97;2.30;;;;;;;7.27;100.00;101992.84;5019395;28;20430;-75
2022/10/11 00:54:34;;;;;;;5.17;1.47;;;;;;;8.01;100.00;102095.94;5020854;28;20454;-76
2022/10/11 00:57:06;;;;;;;6.03;2.20;;;;;;;8.97;100.00;102173.75;5020246;28;20466;-75
2022/10/11 00:59:36;;;;;;;7.60;2.10;;;;;;;8.30;100.00;102158.09;5008076;28;20496;-76
2022/10/11 01:02:03;;;;;;;12.43;2.17;;;;;;;7.22;100.00;101996.78;5014939;28;21049;-78
2022/10/11 01:04:29;;;;;;;6.63;1.83;;;;;;;6.80;100.00;101876.41;5004265;28;20801;-76
2022/10/11 01:06:56;;;;;;;10.83;2.00;;;;;;;7.79;100.00;102052.66;5000298;28;20443;-76
2022/10/11 01:09:22;;;;;;;8.80;1.93;;;;;;;9.13;100.00;102293.47;5018789;28;20193;-77
2022/10/11 01:11:51;;;;;;;8.30;1.93;;;;;;;9.73;100.00;102390.06;5016497;28;20812;-76
2022/10/11 01:14:28;;;;;;;9.53;2.43;;;;;;;9.56;100.00;102351.59;5017555;28;20201;-77
2022/10/11 01:17:26;;;;;;;7.20;2.43;;;;;;;7.98;100.00;102131.81;5016449;28;20512;-76
2022/10/11 01:20:13;;;;;;;7.23;1.73;;;;;;;9.80;100.00;102356.28;5020550;28;20926;-77
2022/10/11 01:22:38;;;;;;;5.50;1.70;;;;;;;9.79;100.00;102354.59;5020991;28;21021;-77
2022/10/11 01:25:22;;;;;;;6.10;1.67;;;;;;;9.80;100.00;102355.44;5020180;28;20457;-77
2022/10/11 01:27:55;;;;;;;6.10;2.33;;;;;;;9.66;100.00;102362.19;5019317;28;20208;-76
2022/10/11 01:30:33;;;;;;;9.40;2.13;;;;;;;8.46;100.00;102213.56;5020099;28;20831;-76
2022/10/11 01:33:22;;;;;;;7.73;1.90;;;;;;;9.58;100.00;102367.53;5019333;28;20435;-77
2022/10/11 01:36:02;;;;;;;6.80;1.60;;;;;;;7.31;100.00;102032.41;5004475;28;21483;-78
2022/10/11 01:38:40;;;;;;;10.27;3.07;;;;;;;8.05;100.00;102135.59;5018298;28;20471;-76
2022/10/11 01:41:19;;;;;;;5.10;1.87;;;;;;;7.64;100.00;102096.91;5018473;28;20945;-78
2022/10/11 01:43:48;;;;;;;7.63;2.07;;;;;;;6.90;100.00;101991.88;5018291;28;20566;-78
2022/10/11 01:46:15;;;;;;;10.53;1.90;;;;;;;7.34;100.00;102007.25;5018339;28;20443;-76
2022/10/11 01:48:55;;;;;;;8.27;2.00;;;;;;;9.43;100.00;102392.16;5018538;28;20458;-77
2022/10/11 01:51:24;;;;;;;7.03;1.67;;;;;;;7.43;100.00;102044.59;5002086;28;20446;-76
2022/10/11 01:54:06;;;;;;;5.27;2.03;;;;;;;9.52;100.00;102377.00;5017955;28;20445;-76
2022/10/11 01:56:56;;;;;;;11.13;2.13;;;;;;;7.59;100.00;102110.69;5019368;28;20888;-76
2022/10/11 01:59:42;;;;;;;11.97;2.57;;;;;;;7.80;100.00;102150.50;5017597;28;20748;-76
2022/10/11 02:02:28;;;;;;;9.97;2.10;;;;;;;9.66;100.00;102386.31;5019851;28;20446;-76
2022/10/11 02:04:59;;;;;;;7.10;1.73;;;;;;;9.64;100.00;102378.44;5019952;28;20742;-75
2022/10/11 02:07:43;;;;;;;5.57;1.90;;;;;;;8.71;100.00;102284.22;5012586;28;20466;-75
2022/10/11 02:10:23;;;;;;;6.10;2.60;;;;;;;7.81;100.00;102140.66;5019472;28;20487;-77
2022/10/11 02:12:56;;;;;;;10.20;1.97;;;;;;;8.57;100.00;102197.31;5021077;28;20453;-76
2022/10/11 02:15:24;;;;;;;7.13;2.03;;;;;;;6.74;100.00;101912.50;5016038;28;20995;-76
2022/10/11 02:17:55;;;;;;;7.67;2.00;;;;;;;7.61;100.00;102116.72;5019482;28;20469;-76
2022/10/11 02:20:25;;;;;;;5.70;1.57;;;;;;;7.22;100.00;102038.66;5019210;28;20610;-76
2022/10/11 02:22:58;;;;;;;5.87;1.70;;;;;;;7.51;100.00;102134.59;5018800;28;20475;-77
2022/10/11 02:25:28;;;;;;;9.03;1.83;;;;;;;8.52;100.00;102244.22;5004719;28;20826;-76
2022/10/11 02:27:58;;;;;;;7.77;1.83;;;;;;;7.10;100.00;102056.66;5020569;28;20953;-77
2022/10/11 02:30:24;;;;;;;9.93;2.80;;;;;;;7.92;100.00;102170.66;5018472;28;20447;-76
2022/10/11 02:32:51;;;;;;;12.47;2.67;;;;;;;6.46;100.00;101924.13;5020030;28;20455;-76
2022/10/11 02:35:19;;;;;;;8.00;3.00;;;;;;;6.55;100.00;101945.41;5018705;28;20192;-76
2022/10/11 02:38:13;;;;;;;8.97;2.13;;;;;;;9.27;100.00;102392.00;5015948;28;20726;-76
2022/10/11 02:40:43;;;;;;;9.53;2.33;;;;;;;9.28;100.00;102426.66;5010236;28;20947;-76
2022/10/11 02:43:38;;;;;;;8.67;2.07;;;;;;;8.56;100.00;102283.03;5018234;28;20475;-76
2022/10/11 02:46:06;;;;;;;7.40;2.20;;;;;;;6.44;100.00;101926.09;5001529;28;20470;-78
2022/10/11 02:48:34;;;;;;;6.97;1.80;;;;;;;6.90;100.00;102050.56;5016253;28;20536;-76
2022/10/11 02:51:00;;;;;;;6.07;2.00;;;;;;;7.62;100.00;102165.63;5018709;28;20443;-76
2022/10/11 02:53:26;;;;;;;7.07;1.97;;;;;;;6.83;100.00;102030.78;5019153;28;20443;-76
2022/10/11 02:55:53;;;;;;;11.13;2.50;;;;;;;8.15;100.00;102227.22;5007420;28;20451;-78
2022/10/11 02:58:19;;;;;;;8.27;2.20;;;;;;;8.42;100.00;102262.16;5003976;28;20219;-76
2022/10/11 03:00:45;;;;;;;15.60;2.37;;;;;;;6.70;100.00;102012.44;5000885;28;20454;-75
2022/10/11 03:03:10;;;;;;;6.03;1.80;;;;;;;7.73;100.00;102178.78;5015400;28;20463;-75
2022/10/11 03:05:42;;;;;;;8.90;2.03;;;;;;;8.64;100.00;102309.03;5021425;28;20219;-75
2022/10/11 03:08:10;;;;;;;9.97;1.77;;;;;;;7.51;100.00;102152.47;5016694;28;20657;-75
2022/10/11 03:10:36;;;;;;;7.30;1.70;;;;;;;8.24;100.00;102275.44;5019726;28;20470;-75
2022/10/11 03:13:02;;;;;;;6.53;1.67;;;;;;;8.84;100.00;102380.16;5014583;28;20478;-77
2022/10/11 03:15:27;;;;;;;6.67;1.90;;;;;;;6.46;100.00;101972.94;5020714;28;20478;-77
2022/10/11 03:17:53;;;;;;;7.90;2.10;;;;;;;6.51;100.00;102026.66;5021120;28;20814;-75
2022/10/11 03:20:18;;;;;;;9.70;2.57;;;;;;;6.37;100.00;101978.31;5019628;28;20717;-76
2022/10/11 03:22:44;;;;;;;10.37;2.27;;;;;;;6.55;100.00;102083.19;5023546;28;20212;-75
2022/10/11 03:25:09;;;;;;;11.13;2.00;;;;;;;8.40;100.00;102331.00;5024217;28;20614;-75
2022/10/11 03:27:35;;;;;;;7.60;1.90;;;;;;;7.61;100.00;102196.00;5007477;28;20692;-75
2022/10/11 03:30:01;;;;;;;9.70;2.67;;;;;;;6.57;100.00;102004.75;5023796;28;20184;-76
2022/10/11 03:32:27;;;;;;;6.53;2.27;;;;;;;6.65;100.00;102065.34;5023563;28;20184;-75
2022/10/11 03:34:52;;;;;;;9.27;2.03;;;;;;;6.78;100.00;102027.72;5022097;28;20505;-75
2022/10/11 03:37:18;;;;;;;7.33;1.70;;;;;;;6.47;100.00;101969.28;5021121;28;20462;-76
2022/10/11 03:39:44;;;;;;;9.23;2.07;;;;;;;7.22;100.00;102142.72;5022722;28;20184;-75
2022/10/11 03:42:10;;;;;;;6.60;1.93;;;;;;;7.49;100.00;102163.28;5022686;28;20184;-74
2022/10/11 03:44:37;;;;;;;8.30;1.97;;;;;;;6.43;100.00;101957.22;5024749;28;20477;-75
2022/10/11 03:47:03;;;;;;;6.93;1.93;;;;;;;6.53;100.00;102080.66;5023577;28;20475;-75
2022/10/11 03:49:28;;;;;;;14.17;2.20;;;;;;;7.43;100.00;102247.47;5024018;28;20472;-76
2022/10/11 03:51:54;;;;;;;5.93;1.97;;;;;;;6.97;100.00;102203.72;5021977;28;20446;-76
2022/10/11 03:54:19;;;;;;;9.50;1.87;;;;;;;7.40;100.00;102263.75;5021031;28;20199;-75
2022/10/11 03:56:45;;;;;;;5.60;1.50;;;;;;;7.72;100.00;102257.22;5021568;28;20668;-76
2022/10/11 03:59:10;;;;;;;6.17;1.40;;;;;;;8.32;100.00;102388.66;5021789;28;20642;-77
2022/10/11 04:01:37;;;;;;;4.97;1.70;;;;;;;6.34;100.00;102016.72;5009829;28;20188;-77
2022/10/11 04:04:04;;;;;;;3.53;1.47;;;;;;;7.54;100.00;102242.94;5016439;28;21381;-76
2022/10/11 04:06:29;;;;;;;7.87;1.80;;;;;;;8.03;100.00;102281.88;5017634;28;20453;-76
2022/10/11 04:08:55;;;;;;;4.27;1.37;;;;;;;6.60;100.00;102080.94;5023447;28;20463;-78
2022/10/11 04:11:20;;;;;;;7.43;2.03;;;;;;;8.28;100.00;102316.94;5000311;28;20192;-76
2022/10/11 04:13:45;;;;;;;7.87;1.90;;;;;;;7.70;100.00;102205.81;5023738;28;20181;-77
2022/10/11 04:16:11;;;;;;;4.57;1.50;;;;;;;7.09;100.00;102144.84;5022125;28;20201;-76
2022/10/11 04:18:36;;;;;;;6.50;1.53;;;;;;;6.77;100.00;102114.88;5003761;28;20219;-76
2022/10/11 04:21:02;;;;;;;9.83;2.23;;;;;;;7.14;100.00;102158.59;5020662;28;20561;-76
2022/10/11 04:23:29;;;;;;;7.80;2.03;;;;;;;8.48;100.00;102438.91;5017342;28;20209;-76
2022/10/11 04:25:55;;;;;;;6.97;2.23;;;;;;;8.18;100.00;102329.50;5019290;28;20202;-77
2022/10/11 04:28:21;;;;;;;8.13;1.80;;;;;;;7.95;100.00;102321.81;5021258;28;21030;-76
2022/10/11 04:30:47;;;;;;;7.13;2.20;;;;;;;7.74;100.00;102278.47;5003591;28;20459;-77
2022/10/11 04:33:13;;;;;;;9.87;2.10;;;;;;;7.34;100.00;102207.44;5013746;28;20509;-75
2022/10/11 04:35:39;;;;;;;7.33;3.30;;;;;;;6.44;100.00;102020.19;5021634;28;20652;-75
2022/10/11 04:38:04;;;;;;;5.50;1.50;;;;;;;7.61;100.00;102270.78;5020700;28;20462;-75
2022/10/11 04:40:30;;;;;;;8.30;1.70;;;;;;;6.70;100.00;102055.09;5016874;28;20449;-76
2022/10/11 04:42:56;;;;;;;8.60;2.27;;;;;;;6.93;100.00;102130.28;5019440;28;20236;-75
2022/10/11 04:45:21;;;;;;;8.73;1.97;;;;;;;8.01;100.00;102323.06;5019214;28;20196;-76
2022/10/11 04:47:47;;;;;;;10.10;1.80;;;;;;;8.12;100.00;102304.19;5020971;28;20327;-76
2022/10/11 04:50:12;;;;;;;6.27;1.80;;;;;;;7.82;100.00;102268.72;5019902;28;20249;-75
2022/10/11 04:52:38;;;;;;;7.50;2.07;;;;;;;8.10;100.00;102295.47;5017237;28;20463;-75
2022/10/11 04:55:04;;;;;;;5.10;1.73;;;;;;;6.49;100.00;102043.78;5019984;28;20193;-75
2022/10/11 04:57:29;;;;;;;8.63;2.00;;;;;;;6.26;100.00;102072.53;5020257;28;20212;-75
2022/10/11 04:59:55;;;;;;;10.13;2.97;;;;;;;9.09;100.00;102498.22;5021631;28;20449;-76
2022/10/11 05:02:20;;;;;;;7.77;1.90;;;;;;;8.10;100.00;102323.06;5019526;28;20217;-76
2022/10/11 05:04:46;;;;;;;10.00;3.00;;;;;;;6.70;100.00;102096.91;5019390;28;20536;-76
2022/10/11 05:07:11;;;;;;;7.00;2.43;;;;;;;7.30;100.00;102220.25;5012085;28;20230;-76
2022/10/11 05:09:37;;;;;;;9.83;2.63;;;;;;;9.16;100.00;102496.63;4998516;28;20212;-75
2022/10/11 05:12:03;;;;;;;14.60;2.23;;;;;;;6.57;100.00;102139.88;5018461;28;20585;-76
2022/10/11 05:14:28;;;;;;;11.07;2.80;;;;;;;6.40;100.00;102039.31;5018383;28;20494;-76
2022/10/11 05:16:54;;;;;;;8.77;2.23;;;;;;;6.81;100.00;102066.59;5018231;28;20271;-76
2022/10/11 05:19:19;;;;;;;7.63;2.47;;;;;;;7.16;100.00;102192.16;5020787;28;20198;-76
2022/10/11 05:21:44;;;;;;;10.60;2.07;;;;;;;7.68;100.00;102253.16;5019991;28;20707;-75
2022/10/11 05:24:10;;;;;;;6.13;2.10;;;;;;;7.70;100.00;102249.38;5013987;28;20393;-75
2022/10/11 05:26:35;;;;;;;7.17;2.57;;;;;;;6.78;100.00;102119.22;5021434;28;20191;-75
2022/10/11 05:29:01;;;;;;;13.33;2.63;;;;;;;8.63;100.00;102435.75;5016689;28;20211;-76
2022/10/11 05:31:26;;;;;;;11.53;2.30;;;;;;;6.82;100.00;102167.78;5010554;28;20195;-76
2022/10/11 05:33:52;;;;;;;8.40;2.57;;;;;;;8.33;100.00;102410.91;5018175;28;20231;-75
2022/10/11 05:36:17;;;;;;;7.40;1.93;;;;;;;6.50;100.00;102067.59;5013298;28;20192;-75
2022/10/11 05:38:43;;;;;;;9.10;2.47;;;;;;;7.72;100.00;102299.94;5016785;28;20760;-76
2022/10/11 05:41:14;;;;;;;7.43;2.37;;;;;;;7.39;100.00;102245.22;5015659;28;20184;-77
2022/10/11 05:43:40;;;;;;;11.60;2.80;;;;;;;8.10;100.00;102371.16;5003892;28;20215;-77
2022/10/11 05:46:05;;;;;;;12.00;3.03;;;;;;;7.29;100.00;102308.44;5000607;28;20451;-75
2022/10/11 05:48:31;;;;;;;13.43;2.40;;;;;;;6.97;100.00;102242.88;5009083;28;20216;-75
2022/10/11 05:51:05;;;;;;;6.40;1.93;;;;;;;7.88;100.00;102371.50;5018053;28;20629;-75
2022/10/11 05:53:31;;;;;;;6.40;1.93;;;;;;;8.46;100.00;102448.06;5021984;28;20184;-76
2022/10/11 05:55:56;;;;;;;8.30;2.43;;;;;;;8.24;100.00;102420.63;5017346;28;20446;-75
2022/10/11 05:58:22;;;;;;;8.60;2.47;;;;;;;7.30;100.00;102318.16;4998241;28;20506;-76
2022/10/11 06:00:47;;;;;;;5.97;1.83;;;;;;;8.15;100.00;102386.75;5009271;28;20199;-76
2022/10/11 06:03:14;;;;;;;6.83;2.10;;;;;;;7.65;100.00;102357.63;5013464;28;20567;-76
2022/10/11 06:05:39;;;;;;;19.17;2.90;;;;;;;9.05;100.00;102584.19;5013887;28;20192;-76
2022/10/11 06:08:07;;;;;;;12.63;2.40;;;;;;;6.17;100.00;102113.34;5017933;28;20464;-76
2022/10/11 06:10:35;;;;;;;10.00;2.90;;;;;;;8.93;100.00;102625.47;5019693;28;20645;-76
2022/10/11 06:13:00;;;;;;;8.17;2.90;;;;;;;6.45;100.00;102170.28;5016144;28;20449;-75
2022/10/11 06:15:26;;;;;;;14.87;2.77;;;;;;;7.80;100.00;102398.06;4996746;28;20438;-76
2022/10/11 06:17:52;;;;;;;14.53;2.90;;;;;;;6.45;100.00;102151.63;5017660;28;20312;-76
2022/10/11 06:20:18;;;;;;;11.73;3.20;;;;;;;6.69;100.00;102234.75;5017033;28;20192;-75
2022/10/11 06:22:43;;;;;;;14.23;2.47;;;;;;;8.83;100.00;102614.78;5003401;28;20225;-75
2022/10/11 06:25:09;;;;;;;12.37;2.93;;;;;;;7.77;100.00;102412.56;4999268;28;20569;-77
2022/10/11 06:27:35;;;;;;;6.27;2.20;;;;;;;6.64;100.00;102225.47;5015313;28;20235;-77
2022/10/11 06:30:00;;;;;;;10.73;2.33;;;;;;;6.75;100.00;102228.00;5017143;28;20189;-76
2022/10/11 06:32:26;;;;;;;14.43;2.60;;;;;;;7.92;100.00;102379.06;5020869;28;20188;-76
2022/10/11 06:34:51;;;;;;;9.83;3.20;;;;;;;8.89;100.00;102601.84;5020069;28;20641;-76
2022/10/11 06:37:17;;;;;;;12.30;3.60;;;;;;;8.54;100.00;102560.50;5017606;28;20209;-76
2022/10/11 06:39:43;;;;;;;8.17;2.20;;;;;;;6.60;100.00;102267.56;5018941;28;20275;-76
2022/10/11 06:42:10;;;;;;;7.93;2.37;;;;;;;7.71;100.00;102397.09;5010189;28;20196;-77
2022/10/11 06:44:36;;;;;;;15.50;2.67;;;;;;;7.64;100.00;102460.09;5014979;28;21617;-76
2022/10/11 06:47:02;;;;;;;16.73;3.90;;;;;;;5.93;100.00;102114.59;5020307;28;20528;-77
2022/10/11 06:49:27;;;;;;;13.33;3.00;;;;;;;7.61;100.00;102401.63;5015076;28;20451;-76
2022/10/11 06:51:53;;;;;;;12.57;2.87;;;;;;;7.58;100.00;102367.16;5021536;28;20653;-75
2022/10/11 06:54:18;;;;;;;12.43;2.73;;;;;;;8.44;100.00;102493.66;4998016;28;20232;-76
2022/10/11 06:56:44;;;;;;;10.33;2.73;;;;;;;7.47;100.00;102357.50;4992273;28;21693;-77
2022/10/11 06:59:12;;;;;;;8.43;2.33;;;;;;;7.10;100.00;102246.09;5019335;28;20184;-76
2022/10/11 07:01:37;;;;;;;13.07;2.90;;;;;;;7.74;100.00;102359.41;5025351;28;20190;-77
2022/10/11 07:04:03;;;;;;;8.93;2.57;;;;;;;6.95;100.00;102171.00;5020141;28;20553;-75
2022/10/11 07:06:30;;;;;;;7.50;2.47;;;;;;;7.78;100.00;102338.59;5006661;28;20719;-76
2022/10/11 07:08:56;;;;;;;7.30;2.00;;;;;;;7.96;100.00;102363.63;5008216;28;21342;-77
2022/10/11 07:11:24;;;;;;;8.83;2.40;;;;;;;8.65;100.00;102463.19;5002172;28;20977;-78
2022/10/11 07:13:54;;;;;;;10.83;2.73;;;;;;;7.43;100.00;102259.97;5018357;28;20497;-76
2022/10/11 07:16:20;;;;;;;10.93;2.47;;;;;;;6.89;100.00;102152.06;5020939;28;20442;-76
2022/10/11 07:18:46;;;;;;;7.60;2.23;;;;;;;7.16;100.00;102207.34;5019815;28;20466;-76
2022/10/11 07:21:14;;;;;;;11.47;2.40;;;;;;;7.21;100.00;102269.13;5014373;28;20449;-76
2022/10/11 07:23:41;;;;;;;9.20;2.20;;;;;;;6.66;100.00;102170.19;5023370;28;20520;-76
2022/10/11 07:26:08;;;;;;;5.80;2.50;;;;;;;8.79;100.00;102474.28;5008666;28;20439;-77
2022/10/11 07:28:35;;;;;;;9.73;2.50;;;;;;;8.79;100.00;102517.09;5003738;28;20467;-75
2022/10/11 07:31:05;;;;;;;9.67;2.10;;;;;;;7.53;100.00;102286.66;5018266;28;20450;-76
2022/10/11 07:33:30;;;;;;;10.20;2.30;;;;;;;8.93;100.00;102555.88;5020997;28;21100;-76
2022/10/11 07:35:56;;;;;;;14.50;3.13;;;;;;;7.30;100.00;102268.28;5019848;28;20529;-76
2022/10/11 07:38:22;;;;;;;7.73;2.37;;;;;;;7.56;100.00;102294.38;5007737;28;20209;-76
2022/10/11 07:40:47;;;;;;;6.10;2.20;;;;;;;9.05;100.00;102538.69;5020649;28;20481;-76
2022/10/11 07:43:13;;;;;;;7.30;2.83;;;;;;;7.12;100.00;102155.25;5022981;28;20235;-76
2022/10/11 07:45:40;;;;;;;9.90;2.47;;;;;;;9.39;100.00;102582.75;5022398;28;20200;-75
2022/10/11 07:48:05;;;;;;;9.67;2.27;;;;;;;7.75;100.00;102309.50;5017396;28;20239;-77
2022/10/11 07:50:32;;;;;;;6.57;2.10;;;;;;;7.40;100.00;102207.69;5021159;28;20875;-75
2022/10/11 07:52:57;;;;;;;8.00;2.57;;;;;;;7.60;100.00;102199.63;5023526;28;20300;-76
2022/10/11 07:55:24;;;;;;;11.77;2.67;;;;;;;8.99;100.00;102450.91;5019965;28;20547;-77
2022/10/11 07:57:49;;;;;;;9.67;3.27;;;;;;;8.69;100.00;102371.81;5020070;28;20292;-75
2022/10/11 08:00:15;;;;;;;11.50;2.23;;;;;;;9.03;100.00;102392.59;5015506;28;20522;-76
2022/10/11 08:02:43;;;;;;;11.57;3.20;;;;;;;8.55;100.00;102350.91;5005010;28;20209;-76
2022/10/11 08:05:08;;;;;;;8.13;2.73;;;;;;;8.35;100.00;102253.84;4998057;28;20743;-76
2022/10/11 08:07:35;;;;;;;8.40;2.50;;;;;;;9.34;100.00;102468.03;5021387;28;20533;-76
2022/10/11 08:10:00;;;;;;;10.53;2.97;;;;;;;8.62;100.00;102341.31;5018353;28;20184;-76
2022/10/11 08:12:26;;;;;;;11.43;3.27;;;;;;;8.01;100.00;102224.22;5022053;28;20934;-76
2022/10/11 08:14:54;;;;;;;7.80;2.50;;;;;;;8.20;100.00;102205.41;5023214;28;20189;-77
2022/10/11 08:17:19;;;;;;;10.27;2.53;;;;;;;8.66;100.00;102323.94;5018305;28;20224;-76
2022/10/11 08:19:45;;;;;;;13.20;3.57;;;;;;;8.06;100.00;102236.13;5003422;28;20436;-77
2022/10/11 08:22:10;;;;;;;16.63;2.47;;;;;;;7.71;100.00;102196.78;5017837;28;20936;-76
2022/10/11 08:24:36;;;;;;;9.63;2.47;;;;;;;10.01;100.00;102607.94;5013762;28;20234;-76
2022/10/11 08:27:01;;;;;;;10.87;3.03;;;;;;;8.23;100.00;102309.34;5021121;28;20200;-76
2022/10/11 08:29:26;;;;;;;10.60;2.50;;;;;;;7.91;100.00;102221.59;5021111;28;20184;-76
2022/10/11 08:31:52;;;;;;;12.57;2.30;;;;;;;8.03;100.00;102246.28;5014720;28;20187;-77
2022/10/11 08:34:17;;;;;;;7.93;2.10;;;;;;;8.71;100.00;102387.72;4998798;28;21219;-76
2022/10/11 08:36:43;;;;;;;12.33;2.50;;;;;;;9.56;100.00;102525.72;5018750;28;20188;-77
2022/10/11 08:39:10;;;;;;;11.47;2.90;;;;;;;8.53;100.00;102371.59;5017965;28;20184;-76
2022/10/11 08:41:51;;;;;;;12.43;2.97;;;;;;;9.72;100.00;102488.38;5021059;28;20199;-76
2022/10/11 08:44:31;;;;;;;8.03;2.07;;;;;;;10.89;100.00;102675.16;5023800;28;20482;-75
2022/10/11 08:47:21;;;;;;;8.73;2.40;;;;;;;9.21;100.00;102436.28;5020336;28;20469;-76
2022/10/11 08:49:47;;;;;;;8.40;2.17;;;;;;;9.34;100.00;102416.31;5020333;28;20434;-77
2022/10/11 08:52:31;;;;;;;7.60;2.10;;;;;;;11.25;100.00;102673.22;5016044;28;20448;-77
2022/10/11 08:54:59;;;;;;;11.30;2.40;;;;;;;8.75;100.00;102258.84;5020353;28;20960;-78
2022/10/11 08:57:28;;;;;;;10.13;2.87;;;;;;;8.88;100.00;102255.81;5011675;28;21086;-77
2022/10/11 08:59:59;;;;;;;8.50;2.37;;;;;;;10.50;100.00;102536.00;4999982;28;20887;-79
2022/10/11 09:02:41;;;;;;;9.23;2.30;;;;;;;10.62;100.00;102517.78;5021913;28;20446;-78
2022/10/11 09:05:13;;;;;;;8.33;2.80;;;;;;;9.22;100.00;102258.59;5002458;28;20435;-77
2022/10/11 09:07:53;;;;;;;6.00;2.10;;;;;;;12.06;100.00;102673.78;5001288;28;20512;-75
2022/10/11 09:10:40;;;;;;;10.33;2.30;;;;;;;12.09;100.00;102666.25;5014464;28;20518;-79
2022/10/11 09:13:30;;;;;;;13.07;2.60;;;;;;;12.11;100.00;102671.44;5020047;28;20432;-76
2022/10/11 09:16:04;;;;;;;8.33;2.40;;;;;;;12.13;100.00;102669.44;5021822;28;20928;-77
2022/10/11 09:18:47;;;;;;;12.10;2.03;;;;;;;12.18;100.00;102670.63;5018640;28;20459;-75
2022/10/11 09:21:34;;;;;;;12.63;3.00;;;;;;;12.25;100.00;102668.09;5015635;28;20430;-77
2022/10/11 09:24:38;;;;;;;7.37;2.20;;;;;;;11.02;100.00;102463.47;5007912;28;20470;-76
2022/10/11 09:27:17;;;;;;;7.83;2.23;;;;;;;9.55;100.00;102207.13;5003026;28;20882;-78
2022/10/11 09:30:00;;;;;;;7.07;2.33;;;;;;;12.61;100.00;102667.81;5016408;28;20450;-76
2022/10/11 09:32:35;;;;;;;7.93;1.83;;;;;;;12.03;100.00;102606.88;5020903;28;20451;-76
2022/10/11 09:35:14;;;;;;;13.50;2.47;;;;;;;10.97;100.00;102430.88;5017474;28;20530;-77
2022/10/11 09:38:12;;;;;;;8.67;2.30;;;;;;;12.66;100.00;102714.75;5013131;28;20543;-76
2022/10/11 09:41:08;;;;;;;7.77;2.43;;;;;;;12.87;100.00;102668.50;5018157;28;20442;-77
2022/10/11 09:43:33;;;;;;;7.10;2.40;;;;;;;11.23;100.00;102444.22;5003428;28;20876;-78
2022/10/11 09:45:59;;;;;;;12.30;2.03;;;;;;;12.82;100.00;102670.03;5019110;28;20502;-77
2022/10/11 09:48:37;;;;;;;10.33;2.10;;;;;;;10.98;100.00;102416.44;5020335;28;20211;-77
2022/10/11 09:51:11;;;;;;;7.63;2.13;;;;;;;11.06;100.00;102352.03;5016471;28;20188;-76
2022/10/11 09:53:59;;;;;;;11.13;2.20;;;;;;;12.97;100.00;102675.56;5013392;28;20419;-76
2022/10/11 09:56:29;;;;;;;8.77;2.17;;;;;;;12.27;100.00;102510.06;5013802;28;20478;-77
2022/10/11 09:59:29;;;;;;;9.20;1.90;;;;;;;13.08;100.00;102681.44;5017360;28;20455;-76
2022/10/11 10:02:17;;;;;;;11.97;2.00;;;;;;;11.57;100.00;102418.25;5020641;28;20513;-76
2022/10/11 10:04:59;;;;;;;9.43;2.40;;;;;;;13.36;100.00;102682.91;5013721;28;20554;-77
2022/10/11 10:07:27;;;;;;;14.67;3.03;;;;;;;13.33;100.00;102721.84;5010752;28;23223;-78
2022/10/11 10:09:52;;;;;;;10.33;2.47;;;;;;;11.32;100.00;102330.41;5014150;28;20443;-76
2022/10/11 10:12:25;;;;;;;11.87;2.60;;;;;;;11.41;100.00;102376.94;5013868;28;20443;-76
2022/10/11 10:15:00;;;;;;;12.93;2.30;;;;;;;11.19;100.00;102305.03;5014262;28;20226;-78
2022/10/11 10:17:26;;;;;;;11.70;1.90;;;;;;;12.31;100.00;102468.34;5012465;28;20475;-76
2022/10/11 10:19:54;;;;;;;8.30;2.10;;;;;;;12.74;100.00;102516.53;5015083;28;20458;-76
2022/10/11 10:22:24;;;;;;;9.20;2.50;;;;;;;13.30;100.00;102593.66;5019839;28;20703;-77
2022/10/11 10:24:50;;;;;;;7.00;2.20;;;;;;;11.86;100.00;102320.97;5016116;28;20816;-77
2022/10/11 10:27:27;;;;;;;4.80;1.40;;;;;;;14.22;100.00;102690.16;5010759;28;20462;-77
2022/10/11 10:30:01;;;;;;;6.43;2.80;;;;;;;12.58;100.00;102468.94;5022237;28;20443;-77
2022/10/11 10:32:52;;;;;;;6.23;1.50;;;;;;;13.39;100.00;102523.56;5013337;28;20442;-76
2022/10/11 10:35:40;;;;;;;10.90;2.17;;;;;;;14.42;100.00;102685.97;4996366;28;20803;-77
2022/10/11 10:38:11;;;;;;;11.20;2.30;;;;;;;12.52;100.00;102348.53;5018233;28;20455;-77
2022/10/11 10:40:48;;;;;;;8.83;2.40;;;;;;;13.04;100.00;102378.38;5019484;28;20462;-77
2022/10/11 10:43:19;;;;;;;11.67;2.40;;;;;;;13.15;100.00;102441.81;5026182;28;20876;-74
2022/10/11 10:46:10;;;;;;;10.63;2.20;;;;;;;14.76;100.00;102687.44;5025030;28;20502;-76
2022/10/11 10:49:01;;;;;;;8.40;2.40;;;;;;;14.17;100.00;102633.16;5025151;28;20524;-74
2022/10/11 10:51:38;;;;;;;5.27;1.50;;;;;;;14.18;100.00;102676.19;5025000;28;20428;-75
2022/10/11 10:54:17;;;;;;;8.80;2.47;;;;;;;13.89;100.00;102632.84;5021288;28;20536;-74
2022/10/11 10:56:51;;;;;;;8.50;1.70;;;;;;;13.97;100.00;102667.84;5023053;28;20417;-73
2022/10/11 10:59:16;;;;;;;5.83;1.83;;;;;;;14.20;100.00;102687.66;5026022;28;20435;-72
2022/10/11 11:02:00;;;;;;;15.13;2.50;;;;;;;13.15;100.00;102544.19;5024966;28;20427;-74
2022/10/11 11:04:30;;;;;;;9.93;2.20;;;;;;;13.27;100.00;102552.75;5023773;28;20212;-74
2022/10/11 11:07:08;;;;;;;10.67;2.00;;;;;;;13.20;100.00;102549.88;5024362;28;20417;-74
2022/10/11 11:09:58;;;;;;;12.13;1.80;;;;;;;13.87;100.00;102634.88;5003304;28;20438;-75
2022/10/11 11:12:44;;;;;;;6.50;2.37;;;;;;;14.17;100.00;102687.97;5024563;28;20419;-74
2022/10/11 11:15:21;;;;;;;10.67;2.27;;;;;;;13.84;100.00;102679.22;5022371;28;20407;-74
2022/10/11 11:18:15;;;;;;;6.60;2.00;;;;;;;13.87;100.00;102686.13;5023835;28;20465;-74
2022/10/11 11:21:07;;;;;;;10.23;1.90;;;;;;;13.72;100.00;102686.03;4989936;28;20438;-73
2022/10/11 11:23:39;;;;;;;12.10;2.20;;;;;;;13.71;100.00;102682.50;5020256;28;20460;-76
2022/10/11 11:26:07;;;;;;;8.93;1.97;;;;;;;13.68;100.00;102685.53;5023054;28;20518;-75
2022/10/11 11:28:51;;;;;;;5.57;1.80;;;;;;;12.89;100.00;102604.50;5024797;28;20462;-77
2022/10/11 11:31:16;;;;;;;7.07;2.23;;;;;;;13.27;100.00;102707.19;5021072;28;20525;-76
2022/10/11 11:34:09;;;;;;;5.07;1.90;;;;;;;11.58;100.00;102481.75;5012347;28;20505;-76
2022/10/11 11:36:48;;;;;;;4.43;1.67;;;;;;;12.06;100.00;102536.59;5023067;28;20231;-78